FSPP

Details ICAO FSPP (PRI)
Name PRASLIN
Region Seychelles
Timezone Indian/Mahe (UTC+4.0)
Plans Departing 6
Arriving 10
Stats Elevation 10 ft / 3 m (AMSL)
Location -4.319293° 55.691415°
Runways 1
Magnetic Variation 4.895° W
Sunrise 2017-12-13 02:01:45 UTC / 2017-12-13 06:01:45 Local
Sunset 2017-12-13 14:23:49 UTC / 2017-12-13 18:23:49 Local
Advertisement - Login to hide

Runways

ID Width Length Bearing (true) Bearing (mag) Surface Threshold Offset Overrun Length
15 104 ft / 32 m 4,621 ft / 1,408 m 149.28° 154.18° Asphalt 676 ft / 206 m 0 ft / 0 m
33 104 ft / 32 m 4,621 ft / 1,408 m 329.28° 334.18° Asphalt 256 ft / 78 m 0 ft / 0 m

Map

Weather


0- 5 10 15 20 25 30 35+ Temperature / ° C

Clouds and Precipitation
Forecast for 2017-12-13 12:00 UTC. Updated 2 hours ago

Ground ~20,000 ft ~40,000 ft Winds

METAR

FSPP 130900Z 35009KT //// //// 28/23 Q1012

TAF

Not found

Frequencies

Ground 121.80 MHz GRD
Tower 122.30 MHz TWR
Warning: Do not use this data for real-world aviation or navigation. No guarantee of current accuracy is given.